createdAt,value
2022-10-23T00:00:56.383Z,93.33
2022-10-23T00:01:56.382Z,93.54
2022-10-23T00:02:56.400Z,93.13
2022-10-23T00:03:56.337Z,92.93
2022-10-23T00:04:56.352Z,92.72
2022-10-23T00:05:56.341Z,93.28
2022-10-23T00:06:56.343Z,93.69
2022-10-23T00:07:56.326Z,94.45
2022-10-23T00:08:56.320Z,94.45
2022-10-23T00:09:56.308Z,95.47
2022-10-23T00:10:56.304Z,94.92
2022-10-23T00:11:56.292Z,95.22
2022-10-23T00:12:56.292Z,95.07
2022-10-23T00:13:56.259Z,94.77
2022-10-23T00:14:56.260Z,94.46
2022-10-23T00:15:56.278Z,94.97
2022-10-23T00:16:56.283Z,94.36
2022-10-23T00:17:56.267Z,94.01
2022-10-23T00:18:56.284Z,93.50
2022-10-23T00:19:56.239Z,93.54
2022-10-23T00:20:56.232Z,93.80
2022-10-23T00:21:56.269Z,93.50
2022-10-23T00:22:56.226Z,92.84
2022-10-23T00:23:56.232Z,92.74
2022-10-23T00:24:56.201Z,92.13
2022-10-23T00:25:56.193Z,91.72
2022-10-23T00:26:56.200Z,91.31
2022-10-23T00:27:56.191Z,91.31
2022-10-23T00:28:56.167Z,91.00
2022-10-23T00:29:56.183Z,91.31
2022-10-23T00:30:56.155Z,91.56
2022-10-23T00:31:56.169Z,91.96
2022-10-23T00:32:57.144Z,91.96
2022-10-23T00:33:56.195Z,92.17
2022-10-23T00:34:56.153Z,92.17
2022-10-23T00:35:56.127Z,92.02
2022-10-23T00:36:56.149Z,92.02
2022-10-23T00:37:56.106Z,91.92
2022-10-23T00:38:56.117Z,91.92
2022-10-23T00:39:56.141Z,91.61
2022-10-23T00:40:56.119Z,91.41
2022-10-23T00:41:56.079Z,90.90
2022-10-23T00:42:56.106Z,90.55
2022-10-23T00:43:56.056Z,90.49
2022-10-23T00:44:56.073Z,89.84
2022-10-23T00:45:56.061Z,90.14
2022-10-23T00:46:56.040Z,89.84
2022-10-23T00:47:56.063Z,89.53
2022-10-23T00:48:56.059Z,89.17
2022-10-23T00:49:56.008Z,88.51
2022-10-23T00:50:56.066Z,88.71
2022-10-23T00:51:56.006Z,88.65
2022-10-23T00:52:56.199Z,88.82
2022-10-23T00:54:01.401Z,88.65
2022-10-23T00:54:57.980Z,88.71
2022-10-23T00:55:56.010Z,88.65
2022-10-23T00:56:55.979Z,88.71
2022-10-23T00:57:55.977Z,88.96
2022-10-23T00:58:56.116Z,88.85
2022-10-23T00:59:55.961Z,88.35
2022-10-23T01:00:56.074Z,87.73
2022-10-23T01:01:56.060Z,88.55
2022-10-23T01:02:55.968Z,88.35
2022-10-23T01:03:55.937Z,88.76
2022-10-23T01:04:55.971Z,88.55
2022-10-23T01:05:55.985Z,88.65
2022-10-23T01:06:55.942Z,89.00
2022-10-23T01:07:55.914Z,88.45
2022-10-23T01:08:55.916Z,88.59
2022-10-23T01:09:55.941Z,88.85
2022-10-23T01:10:55.916Z,88.85
2022-10-23T01:11:55.904Z,88.24
2022-10-23T01:12:55.875Z,88.96
2022-10-23T01:13:55.907Z,88.35
2022-10-23T01:14:55.928Z,88.29
2022-10-23T01:15:55.886Z,89.06
2022-10-23T01:16:55.861Z,88.35
2022-10-23T01:17:55.846Z,88.65
2022-10-23T01:18:55.847Z,89.31
2022-10-23T01:19:55.861Z,89.41
2022-10-23T01:20:55.831Z,89.51
2022-10-23T01:21:55.841Z,89.26
2022-10-23T01:22:55.824Z,89.17
2022-10-23T01:23:55.847Z,89.31
2022-10-23T01:24:55.819Z,89.41
2022-10-23T01:25:55.922Z,89.20
2022-10-23T01:26:55.813Z,89.51
2022-10-23T01:27:55.812Z,89.97
2022-10-23T01:28:55.783Z,91.13
2022-10-23T01:29:55.763Z,91.64
2022-10-23T01:30:55.786Z,91.95
2022-10-23T01:31:55.777Z,91.95
2022-10-23T01:32:55.792Z,91.85
2022-10-23T01:33:55.761Z,91.60
2022-10-23T01:34:55.770Z,91.60
2022-10-23T01:35:55.747Z,91.29
2022-10-23T01:36:55.876Z,91.19
2022-10-23T01:37:55.730Z,91.29
2022-10-23T01:38:55.782Z,91.09
2022-10-23T01:39:55.763Z,90.58
2022-10-23T01:40:55.764Z,90.92
2022-10-23T01:41:55.736Z,91.23
2022-10-23T01:42:55.770Z,91.23
2022-10-23T01:43:55.744Z,91.23
2022-10-23T01:44:55.678Z,91.33
2022-10-23T01:45:55.708Z,91.64
2022-10-23T01:46:55.688Z,91.64
2022-10-23T01:47:55.692Z,91.74
2022-10-23T01:48:55.688Z,91.54
2022-10-23T01:49:55.674Z,91.23
2022-10-23T01:50:55.649Z,90.88
2022-10-23T01:51:56.643Z,91.23
2022-10-23T01:52:55.658Z,91.09
2022-10-23T01:53:55.656Z,90.82
2022-10-23T01:54:55.620Z,91.13
2022-10-23T01:55:55.700Z,90.99
2022-10-23T01:56:55.645Z,90.62
2022-10-23T01:57:55.627Z,89.45
2022-10-23T01:58:55.657Z,88.64
2022-10-23T01:59:55.611Z,89.18
2022-10-23T02:00:55.667Z,89.59
2022-10-23T02:01:55.771Z,89.35
2022-10-23T02:02:55.583Z,90.41
2022-10-23T02:03:55.656Z,89.94
2022-10-23T02:04:55.568Z,90.00
2022-10-23T02:05:55.585Z,90.52
2022-10-23T02:06:55.576Z,90.82
2022-10-23T02:07:55.618Z,90.62
2022-10-23T02:08:55.564Z,90.72
2022-10-23T02:09:55.513Z,90.31
2022-10-23T02:10:55.533Z,90.37
2022-10-23T02:11:55.557Z,90.00
2022-10-23T02:12:55.508Z,90.37
2022-10-23T02:13:55.500Z,90.37
2022-10-23T02:14:55.531Z,90.17
2022-10-23T02:15:55.534Z,90.21
2022-10-23T02:16:55.543Z,90.06
2022-10-23T02:17:55.492Z,90.37
2022-10-23T02:18:55.498Z,90.37
2022-10-23T02:19:55.483Z,90.27
2022-10-23T02:20:55.479Z,90.47
2022-10-23T02:21:55.501Z,90.27
2022-10-23T02:22:55.478Z,89.97
2022-10-23T02:23:56.254Z,90.37
2022-10-23T02:24:55.466Z,89.45
2022-10-23T02:25:55.434Z,89.45
2022-10-23T02:26:55.443Z,89.65
2022-10-23T02:27:55.397Z,89.04
2022-10-23T02:28:55.562Z,89.15
2022-10-23T02:29:55.422Z,89.04
2022-10-23T02:30:55.399Z,88.94
2022-10-23T02:31:55.418Z,89.04
2022-10-23T02:32:55.381Z,88.53
2022-10-23T02:33:55.385Z,87.71
2022-10-23T02:34:55.437Z,87.55
2022-10-23T02:35:55.412Z,87.45
2022-10-23T02:36:55.377Z,87.65
2022-10-23T02:37:55.370Z,87.45
2022-10-23T02:38:55.350Z,87.35
2022-10-23T02:39:55.338Z,87.35
2022-10-23T02:40:55.396Z,87.45
2022-10-23T02:41:55.372Z,87.45
2022-10-23T02:42:55.332Z,87.55
2022-10-23T02:43:55.315Z,87.14
2022-10-23T02:44:55.364Z,87.35
2022-10-23T02:45:55.362Z,87.29
2022-10-23T02:46:55.341Z,87.14
2022-10-23T02:47:55.316Z,88.10
2022-10-23T02:48:55.372Z,87.55
2022-10-23T02:49:55.291Z,87.38
2022-10-23T02:50:55.273Z,87.84
2022-10-23T02:51:55.315Z,88.90
2022-10-23T02:52:55.302Z,88.80
2022-10-23T02:53:55.315Z,89.42
2022-10-23T02:54:55.249Z,89.62
2022-10-23T02:55:55.251Z,89.42
2022-10-23T02:56:55.233Z,90.23
2022-10-23T02:57:55.252Z,89.83
2022-10-23T02:58:55.240Z,89.92
2022-10-23T02:59:55.234Z,89.89
2022-10-23T03:00:55.226Z,89.58
2022-10-23T03:01:55.298Z,89.37
2022-10-23T03:02:55.246Z,89.89
2022-10-23T03:03:55.198Z,89.21
2022-10-23T03:04:55.217Z,89.56
2022-10-23T03:05:55.200Z,90.07
2022-10-23T03:06:55.188Z,90.83
2022-10-23T03:07:55.212Z,91.80
2022-10-23T03:08:55.231Z,92.27
2022-10-23T03:09:55.196Z,92.68
2022-10-23T03:10:55.166Z,92.47
2022-10-23T03:11:55.186Z,92.32
2022-10-23T03:12:55.164Z,92.02
2022-10-23T03:13:55.191Z,91.77
2022-10-23T03:14:55.173Z,91.56
2022-10-23T03:15:55.135Z,90.95
2022-10-23T03:16:55.139Z,90.75
2022-10-23T03:17:55.118Z,90.54
2022-10-23T03:18:55.155Z,89.42
2022-10-23T03:19:55.144Z,90.23
2022-10-23T03:20:55.123Z,89.92
2022-10-23T03:21:55.109Z,90.03
2022-10-23T03:22:55.101Z,90.23
2022-10-23T03:23:55.113Z,89.21
2022-10-23T03:24:55.134Z,89.72
2022-10-23T03:25:55.099Z,89.51
2022-10-23T03:26:55.102Z,89.47
2022-10-23T03:27:55.142Z,89.47
2022-10-23T03:28:55.074Z,89.58
2022-10-23T03:29:55.117Z,89.51
2022-10-23T03:30:55.078Z,89.68
2022-10-23T03:31:55.076Z,89.92
2022-10-23T03:32:55.064Z,89.17
2022-10-23T03:33:55.110Z,89.47
2022-10-23T03:34:55.055Z,88.96
2022-10-23T03:35:55.053Z,89.47
2022-10-23T03:36:55.056Z,89.37
2022-10-23T03:37:55.139Z,88.96
2022-10-23T03:38:55.012Z,88.92
2022-10-23T03:39:55.020Z,88.96
2022-10-23T03:40:55.046Z,88.71
2022-10-23T03:41:54.998Z,89.12
2022-10-23T03:42:54.991Z,89.64
2022-10-23T03:43:55.077Z,89.78
2022-10-23T03:44:54.978Z,89.78
2022-10-23T03:45:54.994Z,90.15
2022-10-23T03:46:54.953Z,90.15
2022-10-23T03:47:55.003Z,90.91
2022-10-23T03:48:54.954Z,90.66
2022-10-23T03:49:54.964Z,91.17
2022-10-23T03:50:54.936Z,90.91
2022-10-23T03:51:54.968Z,90.50
2022-10-23T03:52:55.026Z,90.91
2022-10-23T03:53:55.575Z,90.77
2022-10-23T03:54:54.937Z,91.11
2022-10-23T03:55:54.929Z,91.11
2022-10-23T03:56:57.375Z,90.70
2022-10-23T03:57:55.947Z,90.81
2022-10-23T03:58:54.912Z,90.70
2022-10-23T03:59:54.887Z,90.56
2022-10-23T04:00:54.876Z,90.81
2022-10-23T04:01:54.947Z,90.91
2022-10-23T04:02:54.878Z,90.50
2022-10-23T04:03:54.930Z,90.60
2022-10-23T04:04:54.874Z,90.39
2022-10-23T04:05:54.901Z,90.70
2022-10-23T04:06:54.852Z,90.30
2022-10-23T04:07:54.870Z,90.60
2022-10-23T04:08:54.834Z,90.50
2022-10-23T04:09:54.850Z,90.30
2022-10-23T04:10:54.835Z,89.47
2022-10-23T04:11:54.835Z,89.47
2022-10-23T04:12:54.832Z,89.17
2022-10-23T04:13:54.834Z,89.31
2022-10-23T04:14:54.873Z,89.97
2022-10-23T04:15:54.826Z,90.28
2022-10-23T04:16:54.793Z,91.09
2022-10-23T04:17:54.817Z,92.06
2022-10-23T04:18:54.827Z,92.61
2022-10-23T04:19:54.863Z,93.59
2022-10-23T04:20:54.843Z,94.40
2022-10-23T04:21:54.811Z,94.61
2022-10-23T04:22:54.775Z,94.71
2022-10-23T04:23:54.759Z,95.02
2022-10-23T04:24:54.759Z,95.06
2022-10-23T04:25:54.799Z,96.09
2022-10-23T04:26:54.791Z,96.81
2022-10-23T04:27:54.752Z,97.12
2022-10-23T04:28:54.757Z,96.77
2022-10-23T04:29:56.907Z,96.82
2022-10-23T04:30:54.748Z,96.97
2022-10-23T04:31:54.732Z,96.62
2022-10-23T04:32:54.724Z,96.67
2022-10-23T04:33:56.841Z,96.06
2022-10-23T04:34:54.752Z,95.40
2022-10-23T04:35:54.721Z,95.24
2022-10-23T04:36:54.723Z,94.48
2022-10-23T04:37:54.678Z,93.55
2022-10-23T04:38:54.682Z,93.04
2022-10-23T04:39:54.704Z,92.68
2022-10-23T04:40:54.701Z,92.47
2022-10-23T04:41:54.690Z,92.72
2022-10-23T04:42:55.698Z,93.33
2022-10-23T04:43:54.648Z,93.68
2022-10-23T04:44:54.699Z,94.71
2022-10-23T04:45:54.666Z,94.46
2022-10-23T04:46:54.649Z,95.18
2022-10-23T04:47:54.638Z,94.98
2022-10-23T04:48:54.623Z,95.28
2022-10-23T04:49:54.659Z,94.32
2022-10-23T04:50:54.623Z,94.62
2022-10-23T04:51:54.615Z,94.01
2022-10-23T04:52:54.604Z,93.55
2022-10-23T04:53:54.622Z,93.76
2022-10-23T04:54:54.636Z,92.74
2022-10-23T04:55:54.619Z,93.68
2022-10-23T04:56:54.691Z,95.47
2022-10-23T04:57:54.601Z,96.30
2022-10-23T04:58:54.620Z,96.75
2022-10-23T04:59:54.611Z,96.50
2022-10-23T05:00:54.676Z,96.91
2022-10-23T05:01:54.652Z,96.45
2022-10-23T05:02:54.555Z,96.56
2022-10-23T05:03:54.617Z,96.82
2022-10-23T05:04:54.596Z,96.00
2022-10-23T05:05:54.525Z,95.18
2022-10-23T05:06:54.580Z,94.73
2022-10-23T05:07:54.525Z,94.32
2022-10-23T05:08:54.531Z,94.62
2022-10-23T05:09:54.532Z,93.80
2022-10-23T05:10:54.510Z,93.49
2022-10-23T05:11:54.536Z,94.46
2022-10-23T05:12:54.512Z,94.98
2022-10-23T05:13:54.515Z,95.23
2022-10-23T05:14:54.526Z,95.32
2022-10-23T05:15:54.529Z,95.32
2022-10-23T05:16:54.500Z,95.18
2022-10-23T05:17:54.550Z,95.23
2022-10-23T05:18:54.496Z,95.74
2022-10-23T05:19:54.561Z,96.31
2022-10-23T05:20:54.472Z,96.10
2022-10-23T05:21:54.516Z,96.20
2022-10-23T05:22:54.472Z,95.14
2022-10-23T05:23:54.562Z,95.03
2022-10-23T05:24:54.498Z,94.77
2022-10-23T05:25:54.441Z,95.23
2022-10-23T05:26:54.454Z,96.30
2022-10-23T05:27:54.455Z,97.06
2022-10-23T05:28:54.486Z,97.78
2022-10-23T05:29:54.454Z,98.24
2022-10-23T05:30:54.412Z,98.24
2022-10-23T05:31:54.431Z,99.11
2022-10-23T05:32:54.420Z,98.29
2022-10-23T05:33:54.489Z,98.85
2022-10-23T05:34:54.428Z,99.05
2022-10-23T05:35:54.516Z,98.75
2022-10-23T05:36:54.411Z,98.70
2022-10-23T05:37:54.374Z,99.21
2022-10-23T05:38:54.386Z,98.96
2022-10-23T05:39:54.372Z,98.25
2022-10-23T05:40:54.387Z,98.25
2022-10-23T05:41:54.386Z,98.51
2022-10-23T05:42:54.426Z,97.58
2022-10-23T05:43:54.358Z,98.05
2022-10-23T05:44:54.340Z,96.72
2022-10-23T05:45:54.394Z,96.72
2022-10-23T05:46:54.405Z,96.45
2022-10-23T05:47:56.532Z,95.59
2022-10-23T05:48:54.402Z,95.54
2022-10-23T05:49:54.341Z,95.54
2022-10-23T05:50:54.316Z,95.03
2022-10-23T05:51:54.350Z,94.52
2022-10-23T05:52:54.292Z,94.15
2022-10-23T05:53:54.351Z,94.56
2022-10-23T05:54:54.314Z,94.40
2022-10-23T05:55:54.303Z,94.98
2022-10-23T05:56:54.322Z,95.02
2022-10-23T05:57:54.271Z,95.59
2022-10-23T05:58:54.272Z,94.87
2022-10-23T05:59:54.276Z,94.98
2022-10-23T06:00:54.308Z,95.03
2022-10-23T06:01:54.323Z,94.37
2022-10-23T06:02:54.282Z,94.52
2022-10-23T06:03:54.260Z,93.90
2022-10-23T06:04:54.240Z,93.90
2022-10-23T06:05:54.237Z,93.45
2022-10-23T06:06:54.246Z,93.39
2022-10-23T06:07:54.262Z,93.95
2022-10-23T06:08:54.247Z,95.12
2022-10-23T06:09:54.373Z,96.09
2022-10-23T06:10:54.244Z,97.99
2022-10-23T06:11:54.205Z,98.39
2022-10-23T06:12:54.215Z,98.80
2022-10-23T06:13:54.257Z,98.39
2022-10-23T06:14:54.190Z,98.91
2022-10-23T06:15:54.190Z,98.25
2022-10-23T06:16:54.185Z,98.86
2022-10-23T06:17:54.187Z,98.61
2022-10-23T06:18:54.199Z,98.30
2022-10-23T06:19:54.150Z,97.69
2022-10-23T06:20:55.168Z,97.83
2022-10-23T06:21:54.164Z,97.69
2022-10-23T06:22:54.151Z,97.63
2022-10-23T06:23:54.178Z,98.19
2022-10-23T06:24:54.124Z,99.01
2022-10-23T06:25:54.154Z,97.83
2022-10-23T06:26:54.166Z,98.55
2022-10-23T06:27:54.123Z,97.74
2022-10-23T06:28:54.126Z,97.79
2022-10-23T06:29:54.110Z,97.54
2022-10-23T06:30:54.126Z,96.92
2022-10-23T06:31:54.112Z,96.41
2022-10-23T06:32:54.093Z,96.26
2022-10-23T06:33:54.101Z,95.49
2022-10-23T06:34:54.085Z,95.07
2022-10-23T06:35:54.112Z,95.43
2022-10-23T06:36:55.075Z,96.25
2022-10-23T06:37:54.087Z,96.56
2022-10-23T06:38:54.111Z,96.51
2022-10-23T06:39:54.061Z,96.47
2022-10-23T06:40:54.109Z,96.67
2022-10-23T06:41:54.085Z,96.47
2022-10-23T06:42:54.059Z,95.91
2022-10-23T06:43:54.169Z,94.99
2022-10-23T06:44:54.031Z,94.83
2022-10-23T06:45:54.027Z,94.68
2022-10-23T06:46:54.031Z,94.07
2022-10-23T06:47:54.099Z,94.58
2022-10-23T06:48:54.015Z,93.92
2022-10-23T06:49:54.017Z,93.86
2022-10-23T06:50:54.012Z,93.96
2022-10-23T06:51:53.987Z,93.25
2022-10-23T06:52:54.016Z,93.35
2022-10-23T06:53:53.985Z,93.45
2022-10-23T06:54:53.985Z,93.20
2022-10-23T06:55:55.471Z,93.51
2022-10-23T06:56:53.966Z,93.10
2022-10-23T06:57:53.975Z,93.45
2022-10-23T06:58:53.963Z,94.73
2022-10-23T06:59:53.949Z,93.90
2022-10-23T07:00:54.036Z,95.44
2022-10-23T07:02:53.949Z,95.18
2022-10-23T07:03:53.957Z,95.94
2022-10-23T07:04:53.925Z,96.66
2022-10-23T07:05:53.970Z,96.77
2022-10-23T07:06:53.939Z,96.87
2022-10-23T07:07:53.909Z,96.81
2022-10-23T07:08:53.932Z,97.67
2022-10-23T07:09:53.895Z,97.88
2022-10-23T07:10:53.912Z,97.62
2022-10-23T07:11:53.892Z,98.75
2022-10-23T07:12:53.933Z,98.29
2022-10-23T07:13:53.928Z,99.52
2022-10-23T07:14:53.889Z,98.91
2022-10-23T07:15:53.900Z,98.35
2022-10-23T07:16:53.897Z,98.55
2022-10-23T07:17:53.864Z,98.76
2022-10-23T07:18:53.856Z,98.66
2022-10-23T07:19:53.875Z,98.35
2022-10-23T07:20:53.848Z,98.35
2022-10-23T07:21:53.872Z,98.35
2022-10-23T07:22:53.841Z,97.88
2022-10-23T07:23:54.709Z,98.91
2022-10-23T07:24:53.855Z,98.60
2022-10-23T07:25:53.845Z,98.60
2022-10-23T07:26:53.858Z,98.96
2022-10-23T07:27:53.818Z,99.01
2022-10-23T07:28:53.826Z,99.42
2022-10-23T07:29:53.826Z,99.38
2022-10-23T07:30:53.838Z,99.54
2022-10-23T07:31:53.823Z,98.77
2022-10-23T07:32:53.825Z,98.67
2022-10-23T07:33:53.810Z,98.11
2022-10-23T07:34:53.803Z,98.37
2022-10-23T07:35:53.794Z,97.50
2022-10-23T07:36:53.774Z,97.05
2022-10-23T07:37:53.795Z,96.29
2022-10-23T07:38:53.797Z,95.22
2022-10-23T07:39:53.762Z,94.60
2022-10-23T07:40:53.755Z,94.10
2022-10-23T07:41:53.770Z,93.24
2022-10-23T07:42:53.743Z,92.72
2022-10-23T07:43:53.768Z,92.01
2022-10-23T07:44:53.787Z,91.80
2022-10-23T07:45:53.726Z,91.19
2022-10-23T07:46:53.747Z,90.94
2022-10-23T07:47:53.708Z,90.64
2022-10-23T07:48:53.756Z,90.43
2022-10-23T07:49:53.732Z,90.43
2022-10-23T07:50:53.739Z,90.02
2022-10-23T07:51:53.871Z,89.98
2022-10-23T07:52:53.714Z,89.98
2022-10-23T07:53:53.689Z,90.39
2022-10-23T07:54:53.728Z,89.47
2022-10-23T07:55:53.671Z,90.19
2022-10-23T07:56:53.680Z,89.06
2022-10-23T07:57:53.697Z,89.06
2022-10-23T07:58:53.683Z,89.47
2022-10-23T07:59:53.685Z,89.12
2022-10-23T08:00:53.638Z,89.43
2022-10-23T08:01:55.701Z,88.92
2022-10-23T08:02:53.656Z,89.26
2022-10-23T08:03:53.640Z,89.12
2022-10-23T08:04:53.684Z,90.14
2022-10-23T08:05:53.677Z,89.94
2022-10-23T08:06:53.678Z,89.32
2022-10-23T08:07:53.605Z,89.84
2022-10-23T08:08:53.629Z,90.14
2022-10-23T08:09:53.604Z,89.23
2022-10-23T08:10:53.632Z,89.53
2022-10-23T08:11:53.578Z,89.53
2022-10-23T08:12:53.637Z,89.84
2022-10-23T08:13:53.580Z,90.45
2022-10-23T08:14:53.565Z,90.10
2022-10-23T08:15:53.601Z,90.10
2022-10-23T08:16:53.612Z,90.10
2022-10-23T08:17:53.575Z,89.18
2022-10-23T08:18:53.559Z,89.49
2022-10-23T08:19:53.559Z,89.28
2022-10-23T08:20:53.588Z,88.92
2022-10-23T08:21:53.537Z,89.08
2022-10-23T08:22:53.559Z,88.98
2022-10-23T08:23:53.524Z,89.08
2022-10-23T08:24:53.540Z,89.28
2022-10-23T08:25:53.519Z,89.49
2022-10-23T08:26:53.514Z,89.73
2022-10-23T08:27:53.531Z,90.74
2022-10-23T08:28:53.523Z,92.66
2022-10-23T08:29:53.535Z,94.45
2022-10-23T08:30:53.491Z,94.70
2022-10-23T08:31:53.471Z,96.48
2022-10-23T08:32:53.474Z,97.81
2022-10-23T08:33:53.536Z,97.36
2022-10-23T08:34:53.527Z,97.25
2022-10-23T08:35:53.479Z,97.41
2022-10-23T08:36:53.473Z,97.37
2022-10-23T08:37:53.441Z,97.16
2022-10-23T08:38:53.436Z,97.06
2022-10-23T08:39:53.512Z,96.66
2022-10-23T08:40:53.475Z,96.34
2022-10-23T08:41:53.450Z,95.89
2022-10-23T08:42:53.407Z,95.18
2022-10-23T08:43:53.426Z,95.54
2022-10-23T08:44:53.415Z,95.03
2022-10-23T08:45:53.457Z,94.58
2022-10-23T08:46:53.505Z,93.25
2022-10-23T08:47:53.418Z,92.29
2022-10-23T08:48:53.394Z,92.08
2022-10-23T08:49:53.411Z,91.53
2022-10-23T08:50:53.408Z,91.02
2022-10-23T08:51:53.389Z,90.77
2022-10-23T08:52:53.361Z,90.47
2022-10-23T08:53:53.375Z,91.08
2022-10-23T08:54:53.383Z,92.10
2022-10-23T08:55:53.404Z,92.00
2022-10-23T08:56:53.368Z,93.16
2022-10-23T08:57:53.358Z,93.67
2022-10-23T08:59:53.329Z,93.12
2022-10-23T09:00:53.382Z,92.61
2022-10-23T09:01:53.395Z,93.47
2022-10-23T09:02:53.297Z,93.82
2022-10-23T09:03:53.278Z,94.29
2022-10-23T09:04:53.305Z,94.08
2022-10-23T09:05:53.261Z,93.93
2022-10-23T09:06:53.270Z,93.79
2022-10-23T09:07:53.265Z,93.48
2022-10-23T09:08:53.240Z,92.16
2022-10-23T09:09:53.247Z,92.36
2022-10-23T09:10:53.260Z,92.36
2022-10-23T09:11:53.225Z,93.38
2022-10-23T09:12:53.262Z,94.35
2022-10-23T09:13:53.240Z,93.24
2022-10-23T09:14:53.225Z,94.40
2022-10-23T09:15:53.235Z,94.20
2022-10-23T09:16:53.214Z,94.40
2022-10-23T09:17:53.218Z,94.40
2022-10-23T09:18:54.216Z,95.01
2022-10-23T09:19:53.175Z,94.92
2022-10-23T09:20:54.170Z,93.85
2022-10-23T09:21:53.151Z,94.31
2022-10-23T09:22:53.169Z,93.40
2022-10-23T09:23:53.245Z,93.19
2022-10-23T09:24:54.010Z,93.15
2022-10-23T09:25:54.164Z,93.05
2022-10-23T09:26:53.183Z,92.64
2022-10-23T09:27:55.719Z,93.45
2022-10-23T09:28:54.183Z,93.41
2022-10-23T09:29:53.114Z,93.57
2022-10-23T09:30:53.112Z,92.25
2022-10-23T09:31:53.115Z,93.67
2022-10-23T09:32:53.080Z,92.35
2022-10-23T09:33:53.097Z,93.12
2022-10-23T09:34:53.083Z,91.90
2022-10-23T09:35:53.089Z,91.90
2022-10-23T09:36:53.097Z,91.90
2022-10-23T09:37:53.076Z,91.05
2022-10-23T09:38:53.044Z,91.09
2022-10-23T09:39:53.032Z,90.58
2022-10-23T09:40:53.124Z,91.45
2022-10-23T09:41:56.340Z,91.75
2022-10-23T09:42:54.124Z,91.75
2022-10-23T09:43:53.064Z,90.45
2022-10-23T09:44:53.001Z,90.05
2022-10-23T09:45:52.989Z,89.68
2022-10-23T09:46:52.990Z,90.33
2022-10-23T09:47:53.010Z,90.29
2022-10-23T09:48:53.032Z,90.29
2022-10-23T09:49:52.974Z,90.29
2022-10-23T09:50:52.950Z,89.84
2022-10-23T09:51:53.369Z,89.94
2022-10-23T09:52:52.949Z,89.29
2022-10-23T09:53:52.942Z,89.50
2022-10-23T09:54:52.937Z,89.70
2022-10-23T09:55:52.913Z,89.04
2022-10-23T09:56:53.295Z,88.75
2022-10-23T09:57:52.907Z,88.64
2022-10-23T09:58:52.913Z,88.64
2022-10-23T09:59:52.874Z,88.90
2022-10-23T10:00:54.738Z,88.70
2022-10-23T10:01:52.961Z,89.41
2022-10-23T10:02:52.876Z,89.31
2022-10-23T10:03:52.877Z,88.60
2022-10-23T10:04:52.889Z,88.60
2022-10-23T10:05:52.957Z,88.40
2022-10-23T10:06:52.846Z,88.09
2022-10-23T10:07:52.821Z,88.56
2022-10-23T10:08:52.814Z,87.65
2022-10-23T10:09:52.848Z,87.14
2022-10-23T10:10:52.821Z,87.14
2022-10-23T10:11:52.783Z,86.94
2022-10-23T10:12:52.833Z,87.34
2022-10-23T10:13:52.849Z,87.95
2022-10-23T10:14:52.781Z,87.24
2022-10-23T10:15:52.779Z,87.34
2022-10-23T10:16:52.769Z,86.13
2022-10-23T10:17:52.751Z,86.83
2022-10-23T10:18:52.731Z,86.33
2022-10-23T10:19:52.743Z,86.19
2022-10-23T10:20:52.731Z,86.29
2022-10-23T10:21:52.748Z,87.30
2022-10-23T10:22:52.770Z,87.85
2022-10-23T10:23:52.682Z,87.54
2022-10-23T10:24:52.694Z,86.94
2022-10-23T10:25:52.712Z,87.24
2022-10-23T10:26:52.703Z,86.90
2022-10-23T10:27:52.674Z,87.71
2022-10-23T10:28:52.685Z,87.74
2022-10-23T10:29:52.669Z,87.54
2022-10-23T10:30:52.639Z,88.35
2022-10-23T10:31:53.227Z,88.25
2022-10-23T10:32:52.687Z,87.95
2022-10-23T10:33:52.646Z,87.85
2022-10-23T10:34:52.601Z,88.56
2022-10-23T10:35:52.626Z,87.89
2022-10-23T10:36:52.585Z,88.46
2022-10-23T10:37:53.113Z,88.25
2022-10-23T10:38:52.582Z,88.05
2022-10-23T10:39:52.578Z,87.95
2022-10-23T10:40:52.556Z,88.11
2022-10-23T10:41:52.560Z,88.82
2022-10-23T10:42:52.580Z,88.86
2022-10-23T10:43:52.537Z,88.82
2022-10-23T10:44:52.550Z,88.51
2022-10-23T10:45:52.523Z,88.82
2022-10-23T10:46:52.535Z,88.42
2022-10-23T10:47:52.511Z,88.21
2022-10-23T10:48:52.539Z,87.91
2022-10-23T10:49:52.583Z,88.92
2022-10-23T10:50:52.487Z,87.91
2022-10-23T10:51:52.479Z,88.01
2022-10-23T10:52:52.547Z,88.42
2022-10-23T10:53:52.459Z,88.17
2022-10-23T10:54:52.473Z,87.46
2022-10-23T10:55:52.447Z,87.87
2022-10-23T10:56:52.432Z,88.98
2022-10-23T10:57:54.200Z,89.99
2022-10-23T10:58:53.417Z,88.48
2022-10-23T10:59:52.421Z,88.72
2022-10-23T11:00:52.494Z,88.42
2022-10-23T11:01:52.519Z,89.63
2022-10-23T11:02:52.431Z,90.03
2022-10-23T11:03:52.405Z,90.34
2022-10-23T11:04:52.364Z,90.34
2022-10-23T11:05:52.436Z,90.95
2022-10-23T11:06:52.377Z,91.50
2022-10-23T11:07:52.350Z,91.46
2022-10-23T11:08:57.885Z,91.75
2022-10-23T11:09:54.343Z,92.06
2022-10-23T11:10:52.342Z,92.00
2022-10-23T11:11:52.319Z,92.21
2022-10-23T11:12:52.342Z,93.02
2022-10-23T11:13:52.313Z,92.71
2022-10-23T11:14:52.295Z,92.91
2022-10-23T11:16:53.275Z,92.82
2022-10-23T11:17:52.312Z,93.62
2022-10-23T11:18:52.337Z,93.57
2022-10-23T11:19:52.252Z,93.02
2022-10-23T11:20:52.257Z,93.32
2022-10-23T11:21:52.259Z,93.22
2022-10-23T11:22:52.234Z,93.52
2022-10-23T11:23:52.221Z,93.68
2022-10-23T11:24:53.377Z,93.27
2022-10-23T11:25:53.222Z,92.67
2022-10-23T11:26:52.230Z,92.77
2022-10-23T11:27:52.209Z,92.36
2022-10-23T11:28:52.200Z,92.57
2022-10-23T11:29:52.175Z,92.83
2022-10-23T11:30:52.188Z,92.42
2022-10-23T11:31:52.190Z,92.83
2022-10-23T11:32:53.192Z,92.22
2022-10-23T11:33:52.156Z,92.22
2022-10-23T11:34:52.137Z,93.43
2022-10-23T11:35:52.149Z,92.83
2022-10-23T11:36:52.163Z,92.22
2022-10-23T11:37:52.140Z,92.22
2022-10-23T11:38:52.133Z,93.43
2022-10-23T11:39:52.106Z,93.08
2022-10-23T11:40:52.143Z,92.63
2022-10-23T11:41:52.113Z,91.92
2022-10-23T11:42:52.087Z,91.82
2022-10-23T11:43:52.186Z,92.02
2022-10-23T11:44:52.115Z,91.92
2022-10-23T11:45:52.065Z,90.91
2022-10-23T11:46:52.050Z,91.00
2022-10-23T11:47:52.033Z,91.00
2022-10-23T11:48:52.070Z,91.05
2022-10-23T11:49:52.034Z,90.95
2022-10-23T11:50:52.032Z,90.91
2022-10-23T11:51:52.011Z,90.75
2022-10-23T11:53:12.640Z,89.73
2022-10-23T11:53:54.056Z,89.83
2022-10-23T11:54:52.003Z,89.94
2022-10-23T11:55:51.994Z,89.48
2022-10-23T11:56:51.978Z,89.89
2022-10-23T11:57:51.972Z,89.69
2022-10-23T11:58:51.967Z,89.08
2022-10-23T11:59:51.975Z,89.54
2022-10-23T12:00:52.012Z,89.45
2022-10-23T12:01:52.048Z,89.18
2022-10-23T12:02:55.699Z,89.14
2022-10-23T12:03:52.939Z,89.14
2022-10-23T12:04:51.931Z,88.13
2022-10-23T12:05:51.929Z,88.13
2022-10-23T12:06:51.895Z,88.13
2022-10-23T12:07:51.901Z,88.02
2022-10-23T12:08:51.872Z,88.33
2022-10-23T12:09:51.913Z,88.13
2022-10-23T12:10:51.880Z,88.02
2022-10-23T12:11:51.859Z,88.59
2022-10-23T12:12:51.860Z,87.42
2022-10-23T12:13:51.850Z,88.53
2022-10-23T12:14:51.918Z,88.02
2022-10-23T12:15:51.846Z,88.13
2022-10-23T12:16:51.817Z,88.33
2022-10-23T12:17:51.847Z,88.64
2022-10-23T12:18:51.816Z,88.64
2022-10-23T12:19:51.822Z,88.19
2022-10-23T12:20:51.829Z,88.59
2022-10-23T12:21:51.808Z,88.53
2022-10-23T12:22:51.937Z,88.84
2022-10-23T12:23:51.813Z,89.10
2022-10-23T12:24:51.792Z,89.54
2022-10-23T12:25:51.781Z,90.05
2022-10-23T12:26:51.748Z,89.85
2022-10-23T12:27:51.740Z,88.70
2022-10-23T12:28:51.770Z,87.68
2022-10-23T12:29:51.807Z,88.09
2022-10-23T12:30:51.806Z,87.88
2022-10-23T12:31:51.711Z,87.99
2022-10-23T12:32:51.737Z,88.19
2022-10-23T12:33:51.866Z,87.79
2022-10-23T12:34:51.718Z,88.39
2022-10-23T12:35:51.702Z,89.10
2022-10-23T12:36:51.718Z,90.82
2022-10-23T12:37:51.672Z,90.56
2022-10-23T12:38:51.657Z,90.25
2022-10-23T12:39:51.718Z,90.96
2022-10-23T12:40:51.644Z,90.86
2022-10-23T12:41:51.736Z,90.86
2022-10-23T12:42:51.658Z,90.80
2022-10-23T12:43:51.775Z,91.06
2022-10-23T12:44:51.679Z,90.86
2022-10-23T12:45:51.629Z,90.86
2022-10-23T12:46:51.607Z,89.95
2022-10-23T12:47:51.597Z,89.24
2022-10-23T12:48:51.606Z,88.84
2022-10-23T12:49:51.601Z,89.34
2022-10-23T12:50:51.608Z,89.45
2022-10-23T12:51:51.573Z,88.23
2022-10-23T12:52:51.559Z,88.29
2022-10-23T12:53:51.593Z,88.49
2022-10-23T12:54:51.547Z,89.36
2022-10-23T12:55:51.603Z,89.01